createdAt,value
2019-04-16T00:02:45.160Z,62.70
2019-04-16T00:05:36.480Z,62.80
2019-04-16T00:08:26.589Z,62.80
2019-04-16T00:10:44.868Z,63.30
2019-04-16T00:13:38.864Z,63.30
2019-04-16T00:16:12.690Z,63.30
2019-04-16T00:18:38.895Z,64.10
2019-04-16T00:21:25.841Z,64.90
2019-04-16T00:24:18.620Z,63.60
2019-04-16T00:26:51.032Z,63.20
2019-04-16T00:29:20.409Z,62.30
2019-04-16T00:32:01.908Z,62.80
2019-04-16T00:34:31.376Z,62.50
2019-04-16T00:37:00.623Z,62.90
2019-04-16T00:39:29.768Z,63.50
2019-04-16T00:41:59.130Z,64.30
2019-04-16T00:44:28.337Z,63.80
2019-04-16T00:46:57.540Z,64.10
2019-04-16T00:49:27.202Z,64.60
2019-04-16T00:51:56.502Z,64.20
2019-04-16T00:54:25.652Z,64.00
2019-04-16T00:56:54.821Z,64.10
2019-04-16T00:59:24.936Z,64.60
2019-04-16T01:01:54.245Z,65.10
2019-04-16T01:04:23.467Z,65.00
2019-04-16T01:06:52.742Z,63.80
2019-04-16T01:09:21.926Z,64.50
2019-04-16T01:12:06.784Z,64.70
2019-04-16T01:14:35.963Z,65.00
2019-04-16T01:17:24.273Z,65.90
2019-04-16T01:20:12.884Z,66.50
2019-04-16T01:23:43.021Z,65.90
2019-04-16T01:26:12.984Z,66.90
2019-04-16T01:28:50.453Z,65.20
2019-04-16T01:31:38.691Z,64.80
2019-04-16T01:34:25.324Z,65.50
2019-04-16T01:37:12.312Z,65.50
2019-04-16T01:39:42.095Z,65.40
2019-04-16T01:42:11.245Z,66.00
2019-04-16T01:44:40.431Z,66.00
2019-04-16T01:47:09.573Z,66.60
2019-04-16T01:49:39.362Z,65.90
2019-04-16T01:52:09.835Z,66.40
2019-04-16T01:54:39.179Z,65.20
2019-04-16T01:57:08.319Z,65.30
2019-04-16T01:59:37.481Z,65.80
2019-04-16T02:02:06.711Z,65.80
2019-04-16T02:04:35.940Z,65.80
2019-04-16T02:07:05.440Z,66.60
2019-04-16T02:09:35.632Z,65.20
2019-04-16T02:12:05.105Z,64.50
2019-04-16T02:14:34.271Z,65.60
2019-04-16T02:17:03.867Z,65.90
2019-04-16T02:19:33.624Z,66.40
2019-04-16T02:22:03.059Z,66.90
2019-04-16T02:24:32.403Z,65.90
2019-04-16T02:27:01.549Z,66.60
2019-04-16T02:29:30.748Z,67.70
2019-04-16T02:31:59.940Z,68.00
2019-04-16T02:34:29.310Z,68.80
2019-04-16T02:37:02.452Z,68.50
2019-04-16T02:39:47.335Z,68.20
2019-04-16T02:42:00.931Z,68.80
2019-04-16T02:44:30.160Z,68.80
2019-04-16T02:47:05.442Z,69.50
2019-04-16T02:49:30.377Z,69.10
2019-04-16T02:52:15.242Z,68.40
2019-04-16T02:54:43.620Z,68.60
2019-04-16T02:57:38.094Z,67.40
2019-04-16T03:00:18.982Z,67.20
2019-04-16T03:03:00.578Z,67.80
2019-04-16T03:05:35.909Z,68.40
2019-04-16T03:08:05.955Z,70.00
2019-04-16T03:10:35.584Z,68.90
2019-04-16T03:13:04.734Z,68.70
2019-04-16T03:15:48.084Z,68.80
2019-04-16T03:18:18.505Z,69.70
2019-04-16T03:20:47.932Z,68.40
2019-04-16T03:23:17.205Z,69.30
2019-04-16T03:25:46.372Z,69.00
2019-04-16T03:28:15.532Z,69.20
2019-04-16T03:30:44.729Z,68.20
2019-04-16T03:33:15.164Z,68.60
2019-04-16T03:35:44.829Z,68.90
2019-04-16T03:38:13.992Z,70.00
2019-04-16T03:40:43.168Z,69.90
2019-04-16T03:43:12.335Z,70.80
2019-04-16T03:45:41.521Z,68.80
2019-04-16T03:48:10.768Z,68.00
2019-04-16T03:50:39.902Z,68.80
2019-04-16T03:53:09.092Z,68.50
2019-04-16T03:55:38.254Z,69.00
2019-04-16T03:58:07.652Z,68.80
2019-04-16T04:00:36.945Z,68.70
2019-04-16T04:03:06.236Z,68.60
2019-04-16T04:05:35.811Z,69.80
2019-04-16T04:08:05.531Z,68.80
2019-04-16T04:10:37.073Z,69.00
2019-04-16T04:13:05.872Z,69.10
2019-04-16T04:15:35.088Z,69.50
2019-04-16T04:18:04.341Z,68.10
2019-04-16T04:20:33.487Z,68.20
2019-04-16T04:23:02.670Z,68.10
2019-04-16T04:25:36.025Z,68.30
2019-04-16T04:28:02.688Z,68.90
2019-04-16T04:30:32.120Z,69.40
2019-04-16T04:33:01.364Z,69.20
2019-04-16T04:35:30.495Z,69.20
2019-04-16T04:38:00.848Z,69.20
2019-04-16T04:40:43.805Z,70.10
2019-04-16T04:43:01.984Z,70.90
2019-04-16T04:45:31.159Z,70.40
2019-04-16T04:48:00.532Z,69.80
2019-04-16T04:50:32.360Z,70.00
2019-04-16T04:53:00.692Z,70.20
2019-04-16T04:55:29.831Z,70.90
2019-04-16T04:58:02.484Z,70.00
2019-04-16T05:00:29.882Z,70.30
2019-04-16T05:02:59.071Z,69.60
2019-04-16T05:05:39.031Z,70.30
2019-04-16T05:08:08.272Z,71.50
2019-04-16T05:10:42.734Z,71.40
2019-04-16T05:13:08.420Z,70.30
2019-04-16T05:15:37.900Z,70.20
2019-04-16T05:18:09.910Z,69.60
2019-04-16T05:20:38.068Z,69.00
2019-04-16T05:23:07.348Z,69.60
2019-04-16T05:25:36.490Z,68.90
2019-04-16T05:28:05.640Z,69.00
2019-04-16T05:30:34.810Z,68.20
2019-04-16T05:33:05.641Z,67.80
2019-04-16T05:35:34.851Z,68.50
2019-04-16T05:38:04.159Z,69.10
2019-04-16T05:40:35.144Z,68.80
2019-04-16T05:43:04.530Z,69.10
2019-04-16T05:45:34.506Z,69.00
2019-04-16T05:48:04.673Z,69.00
2019-04-16T05:50:33.909Z,69.10
2019-04-16T05:53:05.429Z,69.20
2019-04-16T05:55:42.915Z,69.10
2019-04-16T05:58:12.061Z,69.80
2019-04-16T06:01:00.306Z,69.30
2019-04-16T06:03:29.559Z,68.30
2019-04-16T06:05:59.198Z,67.90
2019-04-16T06:08:29.125Z,68.10
2019-04-16T06:10:58.477Z,67.30
2019-04-16T06:13:55.962Z,67.10
2019-04-16T06:16:43.171Z,66.10
2019-04-16T06:19:30.288Z,63.50
2019-04-16T06:22:21.489Z,64.80
2019-04-16T06:25:10.705Z,63.90
2019-04-16T06:27:44.883Z,64.90
2019-04-16T06:30:33.816Z,63.90
2019-04-16T06:33:05.919Z,63.20
2019-04-16T06:35:57.165Z,61.80
2019-04-16T06:38:44.199Z,60.80
2019-04-16T06:41:22.904Z,59.90
2019-04-16T06:43:58.306Z,57.70
2019-04-16T06:46:34.087Z,56.70
2019-04-16T06:49:22.406Z,56.30
2019-04-16T06:52:17.932Z,55.70
2019-04-16T06:55:03.572Z,55.40
2019-04-16T06:58:01.083Z,55.60
2019-04-16T07:00:46.133Z,55.20
2019-04-16T07:03:32.516Z,54.60
2019-04-16T07:06:29.508Z,54.80
2019-04-16T07:09:10.380Z,53.10
2019-04-16T07:11:53.450Z,52.90
2019-04-16T07:14:11.545Z,50.20
2019-04-16T07:16:42.255Z,48.30
2019-04-16T07:19:11.701Z,46.90
2019-04-16T07:21:41.050Z,45.70
2019-04-16T07:24:10.453Z,42.10
2019-04-16T07:26:40.321Z,39.40
2019-04-16T07:29:23.472Z,38.80
2019-04-16T07:32:11.861Z,36.80
2019-04-16T07:34:49.607Z,35.50
2019-04-16T07:37:36.413Z,32.90
2019-04-16T07:40:15.818Z,32.60
2019-04-16T07:43:10.066Z,29.40
2019-04-16T07:45:45.387Z,28.90
2019-04-16T07:48:24.082Z,29.10
2019-04-16T07:51:12.253Z,30.50
2019-04-16T07:54:06.790Z,32.60
2019-04-16T07:56:37.296Z,34.30
2019-04-16T07:59:06.595Z,37.30
2019-04-16T08:01:35.861Z,37.90
2019-04-16T08:04:05.116Z,37.80
2019-04-16T08:06:34.280Z,37.30
2019-04-16T08:09:05.552Z,37.80
2019-04-16T08:11:34.713Z,38.10
2019-04-16T08:14:08.794Z,37.50
2019-04-16T08:16:46.606Z,38.30
2019-04-16T08:19:05.797Z,38.90
2019-04-16T08:21:34.960Z,39.40
2019-04-16T08:24:09.268Z,38.80
2019-04-16T08:26:38.537Z,38.40
2019-04-16T08:29:09.554Z,39.20
2019-04-16T08:31:44.550Z,39.10
2019-04-16T08:34:13.077Z,39.30
2019-04-16T08:36:42.304Z,39.60
2019-04-16T08:39:14.158Z,38.90
2019-04-16T08:41:43.424Z,38.90
2019-04-16T08:44:12.588Z,38.00
2019-04-16T08:46:41.852Z,38.80
2019-04-16T08:49:14.462Z,38.50
2019-04-16T08:51:42.044Z,38.80
2019-04-16T08:54:11.390Z,38.90
2019-04-16T08:56:43.175Z,39.50
2019-04-16T08:59:11.923Z,38.70
2019-04-16T09:01:41.317Z,38.60
2019-04-16T09:04:10.472Z,39.10
2019-04-16T09:06:42.644Z,38.90
2019-04-16T09:09:25.431Z,39.50
2019-04-16T09:12:07.744Z,39.00
2019-04-16T09:14:37.027Z,38.70
2019-04-16T09:17:15.981Z,38.90
2019-04-16T09:19:53.376Z,39.40
2019-04-16T09:22:22.592Z,39.00
2019-04-16T09:24:58.677Z,38.10
2019-04-16T09:27:34.332Z,39.00
2019-04-16T09:30:20.851Z,38.70
2019-04-16T09:33:14.956Z,38.40
2019-04-16T09:35:51.812Z,37.50
2019-04-16T09:38:29.341Z,38.20
2019-04-16T09:41:12.821Z,39.50
2019-04-16T09:43:44.729Z,38.60
2019-04-16T09:46:21.596Z,39.00
2019-04-16T09:48:45.009Z,39.00
2019-04-16T09:51:18.909Z,39.10
2019-04-16T09:53:45.036Z,37.30
2019-04-16T09:56:29.029Z,37.80
2019-04-16T09:59:21.751Z,36.10
2019-04-16T10:01:54.961Z,36.40
2019-04-16T10:04:24.115Z,37.00
2019-04-16T10:06:53.401Z,36.20
2019-04-16T10:09:22.698Z,37.10
2019-04-16T10:11:52.808Z,37.20
2019-04-16T10:14:21.955Z,37.00
2019-04-16T10:16:51.189Z,35.90
2019-04-16T10:19:21.722Z,35.20
2019-04-16T10:21:54.317Z,34.60
2019-04-16T10:24:41.305Z,34.20
2019-04-16T10:27:14.747Z,33.50
2019-04-16T10:29:44.357Z,33.30
2019-04-16T10:32:13.609Z,34.20
2019-04-16T10:34:42.785Z,34.00
2019-04-16T10:37:12.006Z,33.70
2019-04-16T10:39:47.702Z,33.40
2019-04-16T10:42:28.112Z,32.40
2019-04-16T10:45:15.338Z,31.10
2019-04-16T10:48:12.934Z,32.20
2019-04-16T10:51:04.339Z,31.70
2019-04-16T10:53:51.256Z,31.50
2019-04-16T10:56:38.533Z,30.70
2019-04-16T10:59:20.609Z,29.70
2019-04-16T11:02:11.714Z,30.60
2019-04-16T11:05:06.164Z,32.10
2019-04-16T11:07:35.426Z,31.30
2019-04-16T11:10:05.330Z,30.00
2019-04-16T11:12:34.600Z,31.40
2019-04-16T11:15:04.958Z,30.70
2019-04-16T11:17:34.122Z,30.00
2019-04-16T11:20:03.409Z,29.20
2019-04-16T11:22:32.610Z,29.30
2019-04-16T11:25:02.004Z,30.00
2019-04-16T11:27:31.338Z,28.00
2019-04-16T11:30:00.547Z,28.40
2019-04-16T11:32:30.137Z,28.70
2019-04-16T11:34:59.284Z,27.30
2019-04-16T11:37:30.709Z,28.10
2019-04-16T11:39:59.883Z,27.60
2019-04-16T11:42:29.138Z,27.00
2019-04-16T11:44:58.398Z,27.10
2019-04-16T11:47:28.109Z,27.70
2019-04-16T11:49:57.761Z,25.70
2019-04-16T11:52:26.909Z,25.20
2019-04-16T11:54:56.208Z,27.30
2019-04-16T11:57:25.557Z,27.20
2019-04-16T12:00:06.471Z,27.30
2019-04-16T12:02:44.748Z,25.80
2019-04-16T12:05:23.788Z,25.10
2019-04-16T12:08:02.496Z,23.80
2019-04-16T12:10:57.218Z,23.40
2019-04-16T12:13:32.888Z,22.70
2019-04-16T12:16:13.067Z,23.60
2019-04-16T12:19:07.292Z,23.70
2019-04-16T12:21:47.171Z,22.70
2019-04-16T12:24:44.347Z,21.60
2019-04-16T12:27:41.846Z,20.90
2019-04-16T12:30:19.802Z,21.20
2019-04-16T12:33:16.856Z,21.90
2019-04-16T12:35:53.429Z,20.80
2019-04-16T12:38:47.544Z,20.80
2019-04-16T12:41:29.957Z,20.10
2019-04-16T12:44:18.151Z,20.00
2019-04-16T12:47:05.266Z,19.70
2019-04-16T12:49:52.456Z,18.80
2019-04-16T12:52:54.949Z,17.80
2019-04-16T12:55:49.035Z,17.80
2019-04-16T12:58:40.285Z,16.50
2019-04-16T13:01:14.520Z,18.30
2019-04-16T13:04:21.186Z,20.20
2019-04-16T13:06:57.621Z,20.40
2019-04-16T13:09:31.412Z,20.30
2019-04-16T13:12:18.808Z,21.70
2019-04-16T13:15:05.804Z,22.00
2019-04-16T13:17:52.776Z,24.00
2019-04-16T13:20:40.257Z,23.70
2019-04-16T13:23:18.081Z,23.40
2019-04-16T13:26:05.117Z,24.10
2019-04-16T13:28:34.319Z,24.10
2019-04-16T13:31:03.467Z,25.50
2019-04-16T13:33:32.680Z,26.10
2019-04-16T13:36:02.016Z,26.60
2019-04-16T13:38:32.792Z,27.10
2019-04-16T13:41:02.686Z,26.90
2019-04-16T13:43:38.475Z,26.90
2019-04-16T13:46:07.704Z,27.30
2019-04-16T13:49:00.714Z,29.30
2019-04-16T13:51:30.594Z,29.70
2019-04-16T13:54:27.835Z,29.80
2019-04-16T13:57:04.772Z,30.10
2019-04-16T13:59:53.073Z,30.40
2019-04-16T14:02:44.068Z,29.90
2019-04-16T14:05:13.552Z,29.40
2019-04-16T14:07:42.806Z,31.20
2019-04-16T14:10:12.201Z,31.40
2019-04-16T14:12:42.671Z,30.00
2019-04-16T14:15:12.442Z,31.00
2019-04-16T14:17:52.552Z,30.00
2019-04-16T14:20:13.890Z,30.50
2019-04-16T14:22:43.621Z,30.70
2019-04-16T14:25:13.168Z,30.20
2019-04-16T14:27:42.431Z,32.60
2019-04-16T14:30:16.204Z,34.20
2019-04-16T14:32:45.453Z,35.10
2019-04-16T14:35:32.446Z,34.90
2019-04-16T14:37:48.992Z,35.60
2019-04-16T14:40:25.472Z,36.50
2019-04-16T14:42:57.439Z,36.40
2019-04-16T14:46:00.188Z,36.80
2019-04-16T14:48:29.711Z,37.30
2019-04-16T14:50:59.012Z,37.30
2019-04-16T14:53:37.894Z,37.90
2019-04-16T14:56:14.984Z,38.20
2019-04-16T14:59:02.075Z,38.20
2019-04-16T15:01:49.317Z,37.90
2019-04-16T15:04:46.733Z,38.30
2019-04-16T15:07:33.933Z,37.60
2019-04-16T15:10:15.612Z,37.90
2019-04-16T15:13:03.992Z,38.40
2019-04-16T15:16:08.599Z,40.50
2019-04-16T15:18:50.827Z,40.90
2019-04-16T15:21:51.191Z,41.00
2019-04-16T15:24:38.070Z,41.30
2019-04-16T15:27:38.661Z,41.40
2019-04-16T15:30:36.024Z,42.10
2019-04-16T15:33:23.158Z,42.20
2019-04-16T15:35:59.408Z,42.70
2019-04-16T15:38:51.356Z,42.90
2019-04-16T15:41:27.381Z,43.30
2019-04-16T15:44:31.753Z,43.20
2019-04-16T15:47:13.336Z,43.60
2019-04-16T15:49:55.706Z,43.30
2019-04-16T15:52:39.360Z,43.30
2019-04-16T15:55:30.645Z,43.70
2019-04-16T15:58:09.546Z,43.60
2019-04-16T16:00:45.412Z,44.50
2019-04-16T16:03:49.042Z,44.10
2019-04-16T16:06:22.160Z,44.30
2019-04-16T16:09:13.523Z,44.40
2019-04-16T16:11:51.156Z,44.80
2019-04-16T16:14:20.765Z,44.90
2019-04-16T16:16:50.799Z,44.80
2019-04-16T16:19:20.925Z,45.10
2019-04-16T16:21:50.076Z,45.50
2019-04-16T16:24:19.352Z,45.90
2019-04-16T16:26:48.510Z,46.80
2019-04-16T16:29:17.676Z,46.40
2019-04-16T16:31:46.901Z,47.00
2019-04-16T16:34:16.089Z,47.20
2019-04-16T16:36:45.336Z,46.60
2019-04-16T16:39:14.803Z,47.00
2019-04-16T16:41:46.524Z,47.30
2019-04-16T16:44:14.949Z,47.10
2019-04-16T16:46:59.030Z,47.80
2019-04-16T16:49:28.469Z,47.20
2019-04-16T16:52:22.435Z,47.60
2019-04-16T16:54:52.176Z,48.40
2019-04-16T16:57:32.103Z,48.50
2019-04-16T17:00:24.041Z,49.80
2019-04-16T17:03:13.415Z,49.20
2019-04-16T17:05:43.109Z,49.20
2019-04-16T17:08:12.277Z,49.40
2019-04-16T17:10:42.636Z,49.70
2019-04-16T17:13:14.620Z,48.60
2019-04-16T17:15:43.185Z,48.60
2019-04-16T17:18:12.374Z,49.00
2019-04-16T17:21:00.758Z,48.80
2019-04-16T17:23:30.128Z,49.50
2019-04-16T17:25:59.643Z,51.30
2019-04-16T17:28:28.780Z,51.80
2019-04-16T17:30:58.249Z,52.60
2019-04-16T17:33:27.508Z,51.90
2019-04-16T17:35:56.775Z,53.40
2019-04-16T17:38:25.926Z,53.70
2019-04-16T17:41:00.338Z,53.00
2019-04-16T17:44:03.159Z,53.50
2019-04-16T17:47:00.052Z,53.30
2019-04-16T17:49:37.187Z,54.00
2019-04-16T17:52:13.587Z,52.60
2019-04-16T17:55:04.559Z,52.50
2019-04-16T17:57:42.541Z,51.80
2019-04-16T18:00:41.541Z,51.80
2019-04-16T18:03:45.605Z,52.30
2019-04-16T18:06:36.666Z,51.50
2019-04-16T18:09:33.081Z,52.40
2019-04-16T18:12:20.758Z,52.90
2019-04-16T18:15:08.868Z,53.40
2019-04-16T18:17:47.330Z,54.10
2019-04-16T18:20:38.327Z,54.30
2019-04-16T18:23:32.685Z,54.70
2019-04-16T18:26:19.775Z,55.00
2019-04-16T18:29:04.260Z,55.80
2019-04-16T18:31:39.422Z,55.80
2019-04-16T18:34:40.333Z,56.20
2019-04-16T18:37:39.712Z,55.80
2019-04-16T18:40:40.270Z,56.40
2019-04-16T18:43:34.932Z,56.70
2019-04-16T18:46:27.017Z,57.10
2019-04-16T18:49:01.497Z,57.10
2019-04-16T18:51:33.545Z,57.80
2019-04-16T18:54:01.708Z,58.10
2019-04-16T18:56:31.126Z,58.00
2019-04-16T18:59:00.325Z,58.10
2019-04-16T19:01:32.579Z,59.00
2019-04-16T19:04:01.071Z,58.80
2019-04-16T19:06:30.388Z,58.90
2019-04-16T19:09:00.060Z,58.60
2019-04-16T19:11:29.329Z,58.40
2019-04-16T19:13:58.527Z,58.00
2019-04-16T19:16:27.698Z,58.00
2019-04-16T19:18:56.903Z,58.20
2019-04-16T19:21:26.072Z,58.40
2019-04-16T19:23:55.256Z,58.50
2019-04-16T19:26:24.530Z,59.20
2019-04-16T19:28:54.011Z,59.00
2019-04-16T19:31:23.923Z,59.10
2019-04-16T19:33:53.240Z,58.60
2019-04-16T19:36:27.132Z,58.10
2019-04-16T19:38:53.761Z,58.90
2019-04-16T19:41:24.299Z,59.40
2019-04-16T19:43:54.248Z,59.70
2019-04-16T19:46:24.053Z,60.00
2019-04-16T19:48:56.729Z,60.50
2019-04-16T19:51:26.311Z,61.20
2019-04-16T19:53:55.712Z,61.00
2019-04-16T19:56:24.963Z,61.00
2019-04-16T19:58:54.522Z,61.50
2019-04-16T20:01:24.165Z,61.40
2019-04-16T20:03:53.872Z,60.70
2019-04-16T20:06:26.157Z,61.70
2019-04-16T20:08:54.661Z,62.30
2019-04-16T20:11:23.967Z,62.60
2019-04-16T20:13:53.622Z,62.70
2019-04-16T20:16:22.924Z,62.90
2019-04-16T20:18:52.106Z,63.40
2019-04-16T20:21:21.304Z,63.90
2019-04-16T20:24:09.605Z,62.90
2019-04-16T20:26:39.041Z,62.60
2019-04-16T20:29:08.520Z,63.20
2019-04-16T20:31:38.268Z,63.40
2019-04-16T20:34:09.356Z,63.30
2019-04-16T20:36:38.453Z,64.00
2019-04-16T20:39:08.752Z,64.40
2019-04-16T20:41:38.189Z,65.10
2019-04-16T20:44:09.172Z,65.20
2019-04-16T20:46:38.449Z,64.90
2019-04-16T20:49:10.640Z,65.70
2019-04-16T20:51:38.637Z,66.10
2019-04-16T20:54:12.793Z,66.00
2019-04-16T20:56:40.622Z,66.50
2019-04-16T20:59:10.018Z,66.40
2019-04-16T21:01:39.299Z,66.30
2019-04-16T21:04:08.470Z,66.00
2019-04-16T21:06:40.786Z,65.90
2019-04-16T21:09:09.265Z,66.40
2019-04-16T21:11:41.002Z,66.20
2019-04-16T21:14:09.742Z,66.60
2019-04-16T21:16:38.984Z,66.60
2019-04-16T21:19:22.104Z,65.90
2019-04-16T21:21:39.197Z,66.70
2019-04-16T21:24:09.220Z,66.70
2019-04-16T21:26:38.717Z,66.90
2019-04-16T21:29:22.957Z,67.30
2019-04-16T21:31:56.664Z,67.70
2019-04-16T21:34:50.852Z,68.40
2019-04-16T21:37:39.070Z,68.90
2019-04-16T21:40:08.523Z,69.30
2019-04-16T21:42:37.707Z,69.30
2019-04-16T21:45:07.639Z,69.50
2019-04-16T21:47:36.915Z,69.40
2019-04-16T21:50:07.304Z,69.40
2019-04-16T21:52:36.454Z,70.20
2019-04-16T21:55:06.220Z,70.70
2019-04-16T21:57:35.363Z,71.20
2019-04-16T22:00:07.595Z,71.00
2019-04-16T22:02:38.889Z,70.90
2019-04-16T22:05:09.785Z,70.70
2019-04-16T22:07:38.961Z,71.20
2019-04-16T22:10:08.499Z,71.70
2019-04-16T22:12:37.705Z,70.80
2019-04-16T22:15:07.591Z,71.80
2019-04-16T22:17:36.862Z,72.30
2019-04-16T22:20:06.494Z,72.80
2019-04-16T22:22:35.784Z,72.70
2019-04-16T22:25:05.509Z,72.10
2019-04-16T22:27:36.755Z,72.00
2019-04-16T22:30:05.976Z,72.10
2019-04-16T22:32:35.219Z,72.20
2019-04-16T22:35:04.710Z,71.90
2019-04-16T22:37:33.885Z,72.20
2019-04-16T22:40:23.504Z,72.60
2019-04-16T22:43:10.460Z,72.60
2019-04-16T22:45:58.715Z,72.70
2019-04-16T22:48:27.965Z,72.20
2019-04-16T22:50:57.380Z,71.50
2019-04-16T22:53:26.665Z,72.60
2019-04-16T22:55:56.745Z,72.30
2019-04-16T22:58:28.897Z,72.30
2019-04-16T23:01:03.122Z,71.80
2019-04-16T23:03:32.512Z,71.30
2019-04-16T23:06:05.949Z,70.90
2019-04-16T23:08:32.975Z,71.10
2019-04-16T23:11:02.284Z,71.90
2019-04-16T23:13:32.560Z,72.70
2019-04-16T23:16:02.593Z,73.10
2019-04-16T23:18:31.745Z,72.80
2019-04-16T23:21:09.435Z,72.70
2019-04-16T23:23:33.844Z,72.90
2019-04-16T23:26:03.470Z,73.50
2019-04-16T23:28:32.699Z,73.10
2019-04-16T23:31:01.925Z,73.50
2019-04-16T23:33:32.796Z,74.20
2019-04-16T23:36:02.352Z,75.00
2019-04-16T23:38:32.410Z,74.20
2019-04-16T23:41:01.825Z,73.70
2019-04-16T23:43:53.556Z,73.70
2019-04-16T23:46:41.413Z,73.60
2019-04-16T23:49:29.651Z,74.10
2019-04-16T23:52:20.617Z,74.10
2019-04-16T23:55:01.912Z,73.90
2019-04-16T23:57:56.685Z,74.20
